Resums METAR propers

 

LEGE - Gerona/Costa Bra, Spain
Distància des de l'estació: S 12km
Actualització: 29/06/2022 02:30
Seré
Seré
 Vent del calm
Vent: Calma
Temperatura: 59°F , 15°C
Rosada: 57°F , 14°C
Humitat: 94%
Baròmetre: 1016 hPa
Resum: Seré
Visibilitat: major de 10 km
2022/06/29 00:30 LEGE 290030Z 00000KT CAVOK 15/14 Q1016